sensor_id;sensor_type;location;lat;lon;timestamp;pressure;altitude;pressure_sealevel;temperature;humidity
77574;BME280;66710;48.868;9.080;2023-06-22T00:01:08;98043.31;;;20.17;80.17
77574;BME280;66710;48.868;9.080;2023-06-22T00:03:34;98040.75;;;20.12;80.31
77574;BME280;66710;48.868;9.080;2023-06-22T00:05:59;98038.38;;;20.01;80.92
77574;BME280;66710;48.868;9.080;2023-06-22T00:08:24;98039.34;;;20.05;80.85
77574;BME280;66710;48.868;9.080;2023-06-22T00:10:50;98041.47;;;20.00;80.91
77574;BME280;66710;48.868;9.080;2023-06-22T00:13:16;98031.59;;;19.90;81.21
77574;BME280;66710;48.868;9.080;2023-06-22T00:15:43;98023.53;;;19.67;82.47
77574;BME280;66710;48.868;9.080;2023-06-22T00:18:10;98032.84;;;19.63;82.64
77574;BME280;66710;48.868;9.080;2023-06-22T00:20:36;98040.19;;;19.50;83.40
77574;BME280;66710;48.868;9.080;2023-06-22T00:23:03;98040.03;;;19.46;83.51
77574;BME280;66710;48.868;9.080;2023-06-22T00:25:40;98048.88;;;19.31;84.52
77574;BME280;66710;48.868;9.080;2023-06-22T00:28:06;98041.41;;;19.31;84.63
77574;BME280;66710;48.868;9.080;2023-06-22T00:30:33;98036.34;;;19.33;84.41
77574;BME280;66710;48.868;9.080;2023-06-22T00:32:59;98035.41;;;19.29;84.63
77574;BME280;66710;48.868;9.080;2023-06-22T00:35:25;98044.63;;;19.33;84.14
77574;BME280;66710;48.868;9.080;2023-06-22T00:37:58;98040.28;;;19.24;84.84
77574;BME280;66710;48.868;9.080;2023-06-22T00:40:26;98033.31;;;19.18;84.99
77574;BME280;66710;48.868;9.080;2023-06-22T00:42:52;98028.41;;;19.23;85.05
77574;BME280;66710;48.868;9.080;2023-06-22T00:45:17;98025.50;;;19.20;85.06
77574;BME280;66710;48.868;9.080;2023-06-22T00:47:43;98049.06;;;19.17;84.96
77574;BME280;66710;48.868;9.080;2023-06-22T00:50:16;98083.16;;;19.30;84.93
77574;BME280;66710;48.868;9.080;2023-06-22T00:52:43;98077.47;;;19.35;84.68
77574;BME280;66710;48.868;9.080;2023-06-22T00:55:11;98068.72;;;19.24;84.64
77574;BME280;66710;48.868;9.080;2023-06-22T00:57:37;98071.50;;;19.16;85.67
77574;BME280;66710;48.868;9.080;2023-06-22T01:00:03;98120.25;;;19.20;85.83
77574;BME280;66710;48.868;9.080;2023-06-22T01:02:31;98139.59;;;18.94;87.47
77574;BME280;66710;48.868;9.080;2023-06-22T01:04:57;98112.59;;;18.91;87.96
77574;BME280;66710;48.868;9.080;2023-06-22T01:07:31;98102.03;;;18.93;87.50
77574;BME280;66710;48.868;9.080;2023-06-22T01:10:14;98101.25;;;18.84;88.31
77574;BME280;66710;48.868;9.080;2023-06-22T01:12:45;98094.38;;;18.81;88.36
77574;BME280;66710;48.868;9.080;2023-06-22T01:15:27;98087.09;;;18.68;89.21
77574;BME280;66710;48.868;9.080;2023-06-22T01:17:54;98077.50;;;18.65;88.49
77574;BME280;66710;48.868;9.080;2023-06-22T01:20:21;98076.03;;;18.68;88.70
77574;BME280;66710;48.868;9.080;2023-06-22T01:23:05;98070.03;;;18.66;89.71
77574;BME280;66710;48.868;9.080;2023-06-22T01:25:40;98072.81;;;18.74;89.08
77574;BME280;66710;48.868;9.080;2023-06-22T01:30:49;98060.63;;;18.84;88.29
77574;BME280;66710;48.868;9.080;2023-06-22T01:33:15;98067.31;;;18.83;88.44
77574;BME280;66710;48.868;9.080;2023-06-22T01:35:42;98069.38;;;18.77;89.11
77574;BME280;66710;48.868;9.080;2023-06-22T01:38:09;98063.72;;;18.91;88.12
77574;BME280;66710;48.868;9.080;2023-06-22T01:40:35;98064.88;;;18.90;88.37
77574;BME280;66710;48.868;9.080;2023-06-22T01:43:02;98069.91;;;18.88;88.42
77574;BME280;66710;48.868;9.080;2023-06-22T01:45:28;98065.34;;;18.84;88.56
77574;BME280;66710;48.868;9.080;2023-06-22T01:47:54;98064.88;;;18.82;88.69
77574;BME280;66710;48.868;9.080;2023-06-22T01:50:20;98062.41;;;18.80;88.58
77574;BME280;66710;48.868;9.080;2023-06-22T01:52:46;98060.44;;;18.63;89.39
77574;BME280;66710;48.868;9.080;2023-06-22T01:55:11;98076.84;;;18.60;89.13
77574;BME280;66710;48.868;9.080;2023-06-22T01:57:36;98076.34;;;18.57;90.19
77574;BME280;66710;48.868;9.080;2023-06-22T02:00:06;98067.59;;;18.64;89.82
77574;BME280;66710;48.868;9.080;2023-06-22T02:03:11;98071.31;;;18.68;89.50
77574;BME280;66710;48.868;9.080;2023-06-22T02:05:48;98079.44;;;18.65;88.74
77574;BME280;66710;48.868;9.080;2023-06-22T02:08:20;98074.56;;;18.62;89.18
77574;BME280;66710;48.868;9.080;2023-06-22T02:10:48;98076.81;;;18.51;90.02
77574;BME280;66710;48.868;9.080;2023-06-22T02:13:14;98083.66;;;18.45;89.37
77574;BME280;66710;48.868;9.080;2023-06-22T02:15:41;98091.44;;;18.34;91.02
77574;BME280;66710;48.868;9.080;2023-06-22T02:18:07;98081.50;;;18.33;91.63
77574;BME280;66710;48.868;9.080;2023-06-22T02:20:32;98079.06;;;18.31;91.00
77574;BME280;66710;48.868;9.080;2023-06-22T02:22:57;98085.44;;;18.32;91.77
77574;BME280;66710;48.868;9.080;2023-06-22T02:25:23;98085.25;;;18.37;91.50
77574;BME280;66710;48.868;9.080;2023-06-22T02:27:48;98079.41;;;18.38;90.93
77574;BME280;66710;48.868;9.080;2023-06-22T02:30:14;98072.13;;;18.34;90.73
77574;BME280;66710;48.868;9.080;2023-06-22T02:32:41;98074.72;;;18.30;91.10
77574;BME280;66710;48.868;9.080;2023-06-22T02:35:08;98070.78;;;18.23;91.42
77574;BME280;66710;48.868;9.080;2023-06-22T02:37:35;98054.22;;;18.23;92.27
77574;BME280;66710;48.868;9.080;2023-06-22T02:40:05;98057.97;;;18.18;92.14
77574;BME280;66710;48.868;9.080;2023-06-22T02:42:32;98059.75;;;18.31;92.14
77574;BME280;66710;48.868;9.080;2023-06-22T02:44:57;98063.69;;;18.39;91.49
77574;BME280;66710;48.868;9.080;2023-06-22T02:47:22;98053.94;;;18.42;91.50
77574;BME280;66710;48.868;9.080;2023-06-22T02:49:48;98046.31;;;18.38;91.79
77574;BME280;66710;48.868;9.080;2023-06-22T02:52:13;98052.31;;;18.49;90.67
77574;BME280;66710;48.868;9.080;2023-06-22T02:54:38;98048.75;;;18.40;91.51
77574;BME280;66710;48.868;9.080;2023-06-22T02:57:04;98048.25;;;18.29;92.35
77574;BME280;66710;48.868;9.080;2023-06-22T02:59:30;98038.97;;;18.08;93.38
77574;BME280;66710;48.868;9.080;2023-06-22T03:01:55;98042.53;;;18.08;93.20
77574;BME280;66710;48.868;9.080;2023-06-22T03:04:21;98052.75;;;18.08;93.28
77574;BME280;66710;48.868;9.080;2023-06-22T03:06:46;98051.00;;;17.80;93.81
77574;BME280;66710;48.868;9.080;2023-06-22T03:09:16;98050.03;;;17.76;93.21
77574;BME280;66710;48.868;9.080;2023-06-22T03:11:42;98036.56;;;17.75;93.34
77574;BME280;66710;48.868;9.080;2023-06-22T03:14:07;98037.88;;;17.77;93.16
77574;BME280;66710;48.868;9.080;2023-06-22T03:16:32;98037.56;;;17.79;93.89
77574;BME280;66710;48.868;9.080;2023-06-22T03:18:59;98029.94;;;17.76;94.56
77574;BME280;66710;48.868;9.080;2023-06-22T03:21:27;98033.66;;;17.80;95.44
77574;BME280;66710;48.868;9.080;2023-06-22T03:23:53;98028.16;;;17.80;95.59
77574;BME280;66710;48.868;9.080;2023-06-22T03:26:19;98035.28;;;17.72;95.44
77574;BME280;66710;48.868;9.080;2023-06-22T03:28:44;98025.53;;;17.75;95.44
77574;BME280;66710;48.868;9.080;2023-06-22T03:31:10;98027.50;;;17.74;94.61
77574;BME280;66710;48.868;9.080;2023-06-22T03:33:35;98032.66;;;17.67;94.31
77574;BME280;66710;48.868;9.080;2023-06-22T03:36:01;98022.91;;;17.61;94.57
77574;BME280;66710;48.868;9.080;2023-06-22T03:38:26;98024.84;;;17.60;94.74
77574;BME280;66710;48.868;9.080;2023-06-22T03:40:52;98025.50;;;17.66;94.49
77574;BME280;66710;48.868;9.080;2023-06-22T03:43:17;98026.00;;;17.59;93.94
77574;BME280;66710;48.868;9.080;2023-06-22T03:45:42;98026.13;;;17.54;94.40
77574;BME280;66710;48.868;9.080;2023-06-22T03:48:10;98033.38;;;17.50;94.50
77574;BME280;66710;48.868;9.080;2023-06-22T03:50:35;98036.31;;;17.54;94.35
77574;BME280;66710;48.868;9.080;2023-06-22T03:53:01;98027.13;;;17.58;94.74
77574;BME280;66710;48.868;9.080;2023-06-22T03:55:27;98026.31;;;17.58;94.32
77574;BME280;66710;48.868;9.080;2023-06-22T03:57:52;98024.03;;;17.60;93.70
77574;BME280;66710;48.868;9.080;2023-06-22T04:00:19;98018.38;;;17.65;93.73
77574;BME280;66710;48.868;9.080;2023-06-22T04:02:44;98020.03;;;17.75;93.31
77574;BME280;66710;48.868;9.080;2023-06-22T04:05:10;98011.94;;;17.78;93.89
77574;BME280;66710;48.868;9.080;2023-06-22T04:07:35;98015.69;;;17.83;93.54
77574;BME280;66710;48.868;9.080;2023-06-22T04:10:05;98020.13;;;17.92;93.44
77574;BME280;66710;48.868;9.080;2023-06-22T04:12:30;98021.59;;;17.98;91.49
77574;BME280;66710;48.868;9.080;2023-06-22T04:14:56;98023.53;;;18.07;92.09
77574;BME280;66710;48.868;9.080;2023-06-22T04:17:21;98017.94;;;17.72;94.50
77574;BME280;66710;48.868;9.080;2023-06-22T04:19:49;98021.91;;;17.88;93.35
77574;BME280;66710;48.868;9.080;2023-06-22T04:22:15;98020.91;;;17.93;93.50
77574;BME280;66710;48.868;9.080;2023-06-22T04:24:40;98011.53;;;17.94;92.94
77574;BME280;66710;48.868;9.080;2023-06-22T04:27:06;98021.44;;;18.04;92.55
77574;BME280;66710;48.868;9.080;2023-06-22T04:29:31;98013.84;;;18.09;92.22
77574;BME280;66710;48.868;9.080;2023-06-22T04:31:57;98011.41;;;18.16;92.13
77574;BME280;66710;48.868;9.080;2023-06-22T04:34:28;98010.44;;;18.21;91.67
77574;BME280;66710;48.868;9.080;2023-06-22T04:36:54;98010.78;;;18.28;91.53
77574;BME280;66710;48.868;9.080;2023-06-22T04:39:19;98007.19;;;18.36;90.82
77574;BME280;66710;48.868;9.080;2023-06-22T04:41:45;98003.81;;;18.40;91.18
77574;BME280;66710;48.868;9.080;2023-06-22T04:44:15;98001.84;;;18.49;91.17
77574;BME280;66710;48.868;9.080;2023-06-22T04:46:52;97995.53;;;18.57;90.16
77574;BME280;66710;48.868;9.080;2023-06-22T04:49:20;98003.31;;;18.64;90.11
77574;BME280;66710;48.868;9.080;2023-06-22T04:51:47;98001.53;;;18.68;90.25
77574;BME280;66710;48.868;9.080;2023-06-22T04:54:13;97998.28;;;18.74;90.25
77574;BME280;66710;48.868;9.080;2023-06-22T04:56:38;97987.72;;;18.85;89.36
77574;BME280;66710;48.868;9.080;2023-06-22T04:59:06;97985.59;;;19.00;88.59
77574;BME280;66710;48.868;9.080;2023-06-22T05:01:31;97985.41;;;19.13;88.31
77574;BME280;66710;48.868;9.080;2023-06-22T05:03:57;97980.50;;;19.19;87.48
77574;BME280;66710;48.868;9.080;2023-06-22T05:06:26;97972.38;;;19.23;87.90
77574;BME280;66710;48.868;9.080;2023-06-22T05:08:55;97982.06;;;19.38;87.48
77574;BME280;66710;48.868;9.080;2023-06-22T05:11:27;97978.13;;;19.47;86.62
77574;BME280;66710;48.868;9.080;2023-06-22T05:13:54;97983.59;;;19.56;86.99
77574;BME280;66710;48.868;9.080;2023-06-22T05:16:20;97974.66;;;19.59;86.32
77574;BME280;66710;48.868;9.080;2023-06-22T05:18:52;97974.94;;;19.75;85.27
77574;BME280;66710;48.868;9.080;2023-06-22T05:21:24;97974.59;;;19.77;85.54
77574;BME280;66710;48.868;9.080;2023-06-22T05:23:50;97971.97;;;19.80;84.80
77574;BME280;66710;48.868;9.080;2023-06-22T05:26:16;97980.69;;;19.91;84.06
77574;BME280;66710;48.868;9.080;2023-06-22T05:28:41;97976.03;;;20.04;84.13
77574;BME280;66710;48.868;9.080;2023-06-22T05:31:06;97960.47;;;20.20;83.57
77574;BME280;66710;48.868;9.080;2023-06-22T05:33:31;97964.31;;;20.28;83.20
77574;BME280;66710;48.868;9.080;2023-06-22T05:35:57;97969.84;;;20.28;82.62
77574;BME280;66710;48.868;9.080;2023-06-22T05:38:22;97974.00;;;20.55;82.21
77574;BME280;66710;48.868;9.080;2023-06-22T05:40:47;97971.13;;;20.52;80.95
77574;BME280;66710;48.868;9.080;2023-06-22T05:43:13;97968.94;;;20.57;81.42
77574;BME280;66710;48.868;9.080;2023-06-22T05:45:38;97962.88;;;20.43;80.60
77574;BME280;66710;48.868;9.080;2023-06-22T05:48:03;97971.44;;;20.50;81.71
77574;BME280;66710;48.868;9.080;2023-06-22T05:50:29;97971.84;;;20.40;81.34
77574;BME280;66710;48.868;9.080;2023-06-22T05:52:54;97981.66;;;20.37;81.48
77574;BME280;66710;48.868;9.080;2023-06-22T05:55:19;97966.00;;;20.41;81.00
77574;BME280;66710;48.868;9.080;2023-06-22T05:57:44;97962.81;;;20.52;80.62
77574;BME280;66710;48.868;9.080;2023-06-22T06:00:10;97960.13;;;20.64;79.75
77574;BME280;66710;48.868;9.080;2023-06-22T06:02:36;97966.16;;;20.78;79.57
77574;BME280;66710;48.868;9.080;2023-06-22T06:05:02;97966.09;;;20.87;78.99
77574;BME280;66710;48.868;9.080;2023-06-22T06:07:28;97963.91;;;20.93;77.93
77574;BME280;66710;48.868;9.080;2023-06-22T06:09:54;97956.22;;;20.98;78.44
77574;BME280;66710;48.868;9.080;2023-06-22T06:12:19;97961.38;;;21.00;78.42
77574;BME280;66710;48.868;9.080;2023-06-22T06:14:44;97963.72;;;21.10;77.67
77574;BME280;66710;48.868;9.080;2023-06-22T06:17:10;97959.88;;;21.48;77.13
77574;BME280;66710;48.868;9.080;2023-06-22T06:19:35;97954.31;;;21.36;76.07
77574;BME280;66710;48.868;9.080;2023-06-22T06:22:00;97952.81;;;21.63;75.50
77574;BME280;66710;48.868;9.080;2023-06-22T06:24:26;97954.78;;;21.75;75.79
77574;BME280;66710;48.868;9.080;2023-06-22T06:26:52;97947.16;;;21.84;75.06
77574;BME280;66710;48.868;9.080;2023-06-22T06:29:17;97948.06;;;22.01;73.45
77574;BME280;66710;48.868;9.080;2023-06-22T06:31:43;97954.22;;;22.47;72.78
77574;BME280;66710;48.868;9.080;2023-06-22T06:34:08;97944.47;;;22.53;72.40
77574;BME280;66710;48.868;9.080;2023-06-22T06:36:33;97952.44;;;22.55;70.75
77574;BME280;66710;48.868;9.080;2023-06-22T06:38:58;97947.84;;;22.75;71.00
77574;BME280;66710;48.868;9.080;2023-06-22T06:41:24;97960.31;;;23.09;69.95
77574;BME280;66710;48.868;9.080;2023-06-22T06:43:49;97968.31;;;23.26;67.92
77574;BME280;66710;48.868;9.080;2023-06-22T06:46:14;97960.25;;;23.53;67.73
77574;BME280;66710;48.868;9.080;2023-06-22T06:48:39;97957.97;;;23.75;66.40
77574;BME280;66710;48.868;9.080;2023-06-22T06:51:05;97956.56;;;23.65;65.89
77574;BME280;66710;48.868;9.080;2023-06-22T06:53:30;97962.94;;;23.65;67.50
77574;BME280;66710;48.868;9.080;2023-06-22T06:55:56;97953.03;;;23.84;64.98
77574;BME280;66710;48.868;9.080;2023-06-22T06:58:22;97950.16;;;23.96;65.98
77574;BME280;66710;48.868;9.080;2023-06-22T07:00:48;97943.91;;;23.83;65.00
77574;BME280;66710;48.868;9.080;2023-06-22T07:03:14;97953.53;;;24.41;64.32
77574;BME280;66710;48.868;9.080;2023-06-22T07:05:39;97945.00;;;24.34;63.76
77574;BME280;66710;48.868;9.080;2023-06-22T07:08:04;97942.59;;;24.32;63.23
77574;BME280;66710;48.868;9.080;2023-06-22T07:10:30;97948.47;;;24.66;62.57
77574;BME280;66710;48.868;9.080;2023-06-22T07:12:55;97939.69;;;24.64;64.59
77574;BME280;66710;48.868;9.080;2023-06-22T07:15:22;97939.97;;;24.78;61.81
77574;BME280;66710;48.868;9.080;2023-06-22T07:17:47;97933.88;;;24.73;62.96
77574;BME280;66710;48.868;9.080;2023-06-22T07:20:12;97929.28;;;24.61;62.53
77574;BME280;66710;48.868;9.080;2023-06-22T07:22:39;97921.31;;;24.83;61.93
77574;BME280;66710;48.868;9.080;2023-06-22T07:25:05;97918.56;;;25.29;59.78
77574;BME280;66710;48.868;9.080;2023-06-22T07:27:38;97910.66;;;25.31;60.33
77574;BME280;66710;48.868;9.080;2023-06-22T07:30:08;97904.94;;;25.47;59.87
77574;BME280;66710;48.868;9.080;2023-06-22T07:32:34;97911.22;;;25.40;60.65
77574;BME280;66710;48.868;9.080;2023-06-22T07:34:59;97904.47;;;25.22;59.64
77574;BME280;66710;48.868;9.080;2023-06-22T07:37:25;97900.16;;;25.24;61.03
77574;BME280;66710;48.868;9.080;2023-06-22T07:39:52;97900.00;;;25.63;58.85
77574;BME280;66710;48.868;9.080;2023-06-22T07:42:19;97897.13;;;25.56;58.57
77574;BME280;66710;48.868;9.080;2023-06-22T07:44:44;97886.28;;;25.51;58.38
77574;BME280;66710;48.868;9.080;2023-06-22T07:47:09;97887.06;;;25.78;56.87
77574;BME280;66710;48.868;9.080;2023-06-22T07:49:34;97886.22;;;26.01;58.28
77574;BME280;66710;48.868;9.080;2023-06-22T07:52:00;97885.47;;;26.04;56.25
77574;BME280;66710;48.868;9.080;2023-06-22T07:54:26;97874.53;;;25.38;57.08
77574;BME280;66710;48.868;9.080;2023-06-22T07:56:51;97868.53;;;25.93;57.04
77574;BME280;66710;48.868;9.080;2023-06-22T07:59:18;97869.03;;;25.72;56.43
77574;BME280;66710;48.868;9.080;2023-06-22T08:01:43;97878.31;;;26.37;55.10
77574;BME280;66710;48.868;9.080;2023-06-22T08:04:09;97892.09;;;26.56;54.68
77574;BME280;66710;48.868;9.080;2023-06-22T08:06:34;97900.22;;;26.65;55.14
77574;BME280;66710;48.868;9.080;2023-06-22T08:08:59;97904.97;;;26.64;52.80
77574;BME280;66710;48.868;9.080;2023-06-22T08:11:25;97910.03;;;26.21;53.63
77574;BME280;66710;48.868;9.080;2023-06-22T08:13:51;97914.06;;;25.70;56.03
77574;BME280;66710;48.868;9.080;2023-06-22T08:16:16;97909.88;;;26.10;54.92
77574;BME280;66710;48.868;9.080;2023-06-22T08:18:41;97921.69;;;25.73;56.08
77574;BME280;66710;48.868;9.080;2023-06-22T08:21:06;97921.38;;;25.79;55.57
77574;BME280;66710;48.868;9.080;2023-06-22T08:23:32;97918.63;;;26.39;53.79
77574;BME280;66710;48.868;9.080;2023-06-22T08:25:57;97918.59;;;26.36;54.09
77574;BME280;66710;48.868;9.080;2023-06-22T08:28:22;97920.97;;;26.34;55.24
77574;BME280;66710;48.868;9.080;2023-06-22T08:30:48;97925.53;;;26.19;55.30
77574;BME280;66710;48.868;9.080;2023-06-22T08:33:13;97925.16;;;26.51;55.22
77574;BME280;66710;48.868;9.080;2023-06-22T08:35:38;97923.44;;;26.08;56.17
77574;BME280;66710;48.868;9.080;2023-06-22T08:38:04;97921.66;;;25.97;56.33
77574;BME280;66710;48.868;9.080;2023-06-22T08:40:29;97921.75;;;25.77;56.70
77574;BME280;66710;48.868;9.080;2023-06-22T08:42:55;97917.53;;;25.90;57.30
77574;BME280;66710;48.868;9.080;2023-06-22T08:45:20;97926.44;;;25.46;57.44
77574;BME280;66710;48.868;9.080;2023-06-22T08:47:45;97916.91;;;25.74;57.65
77574;BME280;66710;48.868;9.080;2023-06-22T08:50:11;97906.88;;;25.69;57.92
77574;BME280;66710;48.868;9.080;2023-06-22T08:52:38;97913.47;;;26.11;55.69
77574;BME280;66710;48.868;9.080;2023-06-22T08:55:06;97918.91;;;26.30;57.42
77574;BME280;66710;48.868;9.080;2023-06-22T08:57:32;97912.59;;;26.67;56.39
77574;BME280;66710;48.868;9.080;2023-06-22T08:59:57;97915.81;;;26.70;54.46
77574;BME280;66710;48.868;9.080;2023-06-22T09:02:26;97909.81;;;26.67;54.79
77574;BME280;66710;48.868;9.080;2023-06-22T09:05:02;97932.97;;;26.68;54.16
77574;BME280;66710;48.868;9.080;2023-06-22T09:07:28;97960.44;;;26.32;55.21
77574;BME280;66710;48.868;9.080;2023-06-22T09:09:53;97964.03;;;26.93;54.25
77574;BME280;66710;48.868;9.080;2023-06-22T09:12:21;97945.09;;;27.61;53.21
77574;BME280;66710;48.868;9.080;2023-06-22T09:14:50;97901.19;;;27.73;53.07
77574;BME280;66710;48.868;9.080;2023-06-22T09:17:15;97904.88;;;28.58;48.99
77574;BME280;66710;48.868;9.080;2023-06-22T09:19:41;97911.41;;;27.99;51.66
77574;BME280;66710;48.868;9.080;2023-06-22T09:22:06;97910.16;;;27.96;51.58
77574;BME280;66710;48.868;9.080;2023-06-22T09:24:32;97913.28;;;28.58;49.23
77574;BME280;66710;48.868;9.080;2023-06-22T09:26:57;97891.16;;;28.34;49.38
77574;BME280;66710;48.868;9.080;2023-06-22T09:29:22;97885.09;;;28.25;50.96
77574;BME280;66710;48.868;9.080;2023-06-22T09:31:48;97881.22;;;28.55;50.63
77574;BME280;66710;48.868;9.080;2023-06-22T09:34:13;97871.69;;;29.03;47.96
77574;BME280;66710;48.868;9.080;2023-06-22T09:36:38;97861.69;;;29.05;47.82
77574;BME280;66710;48.868;9.080;2023-06-22T09:39:04;97851.28;;;29.38;47.50
77574;BME280;66710;48.868;9.080;2023-06-22T09:41:31;97850.50;;;29.20;48.50
77574;BME280;66710;48.868;9.080;2023-06-22T09:43:56;97854.44;;;28.76;50.73
77574;BME280;66710;48.868;9.080;2023-06-22T09:46:22;97845.66;;;29.09;47.63
77574;BME280;66710;48.868;9.080;2023-06-22T09:48:50;97835.16;;;29.96;47.96
77574;BME280;66710;48.868;9.080;2023-06-22T09:51:15;97834.44;;;29.06;48.25
77574;BME280;66710;48.868;9.080;2023-06-22T09:53:40;97839.28;;;29.16;48.91
77574;BME280;66710;48.868;9.080;2023-06-22T09:56:05;97835.59;;;29.69;48.09
77574;BME280;66710;48.868;9.080;2023-06-22T09:58:31;97833.19;;;29.79;47.84
77574;BME280;66710;48.868;9.080;2023-06-22T10:00:56;97836.44;;;29.77;47.60
77574;BME280;66710;48.868;9.080;2023-06-22T10:03:22;97830.84;;;30.58;47.38
77574;BME280;66710;48.868;9.080;2023-06-22T10:05:47;97836.00;;;29.75;48.62
77574;BME280;66710;48.868;9.080;2023-06-22T10:08:13;97840.06;;;29.24;51.34
77574;BME280;66710;48.868;9.080;2023-06-22T10:10:38;97837.25;;;28.99;50.76
77574;BME280;66710;48.868;9.080;2023-06-22T10:13:10;97840.47;;;29.40;48.97
77574;BME280;66710;48.868;9.080;2023-06-22T10:15:36;97836.47;;;29.30;49.01
77574;BME280;66710;48.868;9.080;2023-06-22T10:18:02;97820.00;;;29.07;49.15
77574;BME280;66710;48.868;9.080;2023-06-22T10:20:27;97816.78;;;29.41;48.36
77574;BME280;66710;48.868;9.080;2023-06-22T10:22:53;97817.56;;;29.67;48.78
77574;BME280;66710;48.868;9.080;2023-06-22T10:25:18;97811.50;;;29.86;48.45
77574;BME280;66710;48.868;9.080;2023-06-22T10:27:44;97820.50;;;30.48;47.17
77574;BME280;66710;48.868;9.080;2023-06-22T10:30:10;97804.44;;;30.45;46.78
77574;BME280;66710;48.868;9.080;2023-06-22T10:32:40;97805.06;;;30.74;45.92
77574;BME280;66710;48.868;9.080;2023-06-22T10:35:06;97791.88;;;29.68;47.04
77574;BME280;66710;48.868;9.080;2023-06-22T10:37:32;97809.56;;;29.55;47.88
77574;BME280;66710;48.868;9.080;2023-06-22T10:39:57;97795.50;;;29.76;46.60
77574;BME280;66710;48.868;9.080;2023-06-22T10:42:23;97786.84;;;31.38;43.07
77574;BME280;66710;48.868;9.080;2023-06-22T10:44:48;97778.91;;;31.26;44.24
77574;BME280;66710;48.868;9.080;2023-06-22T10:47:14;97788.16;;;30.78;44.56
77574;BME280;66710;48.868;9.080;2023-06-22T10:49:39;97779.19;;;30.31;45.64
77574;BME280;66710;48.868;9.080;2023-06-22T10:52:08;97775.91;;;30.47;45.01
77574;BME280;66710;48.868;9.080;2023-06-22T10:54:35;97780.91;;;30.10;44.75
77574;BME280;66710;48.868;9.080;2023-06-22T10:57:01;97776.19;;;30.63;45.40
77574;BME280;66710;48.868;9.080;2023-06-22T10:59:27;97775.72;;;31.24;43.95
77574;BME280;66710;48.868;9.080;2023-06-22T11:01:54;97766.91;;;30.70;44.44
77574;BME280;66710;48.868;9.080;2023-06-22T11:04:20;97773.22;;;30.85;45.05
77574;BME280;66710;48.868;9.080;2023-06-22T11:06:45;97778.69;;;31.10;43.65
77574;BME280;66710;48.868;9.080;2023-06-22T11:09:11;97781.28;;;30.83;43.88
77574;BME280;66710;48.868;9.080;2023-06-22T11:11:36;97784.03;;;30.93;42.62
77574;BME280;66710;48.868;9.080;2023-06-22T11:14:02;97764.22;;;31.04;42.00
77574;BME280;66710;48.868;9.080;2023-06-22T11:16:28;97773.00;;;30.61;44.50
77574;BME280;66710;48.868;9.080;2023-06-22T11:18:53;97781.91;;;31.08;42.90
77574;BME280;66710;48.868;9.080;2023-06-22T11:21:18;97778.75;;;31.03;42.12
77574;BME280;66710;48.868;9.080;2023-06-22T11:23:45;97779.28;;;30.79;43.05
77574;BME280;66710;48.868;9.080;2023-06-22T11:26:10;97773.06;;;30.54;44.51
77574;BME280;66710;48.868;9.080;2023-06-22T11:28:35;97765.53;;;30.36;43.31
77574;BME280;66710;48.868;9.080;2023-06-22T11:31:01;97769.22;;;30.19;45.25
77574;BME280;66710;48.868;9.080;2023-06-22T11:33:27;97765.72;;;30.00;45.96
77574;BME280;66710;48.868;9.080;2023-06-22T11:35:52;97770.03;;;30.12;45.33
77574;BME280;66710;48.868;9.080;2023-06-22T11:38:17;97765.28;;;30.05;45.40
77574;BME280;66710;48.868;9.080;2023-06-22T11:40:43;97753.81;;;29.57;45.85
77574;BME280;66710;48.868;9.080;2023-06-22T11:43:08;97743.25;;;29.93;44.38
77574;BME280;66710;48.868;9.080;2023-06-22T11:45:33;97744.78;;;30.05;45.13
77574;BME280;66710;48.868;9.080;2023-06-22T11:47:58;97744.91;;;29.80;45.26
77574;BME280;66710;48.868;9.080;2023-06-22T11:50:24;97752.16;;;29.66;45.13
77574;BME280;66710;48.868;9.080;2023-06-22T11:52:49;97755.84;;;29.31;46.66
77574;BME280;66710;48.868;9.080;2023-06-22T11:55:15;97758.22;;;29.47;45.95
77574;BME280;66710;48.868;9.080;2023-06-22T11:57:53;97752.25;;;29.27;47.11
77574;BME280;66710;48.868;9.080;2023-06-22T12:00:19;97753.44;;;29.33;46.57
77574;BME280;66710;48.868;9.080;2023-06-22T12:02:45;97752.22;;;29.48;47.05
77574;BME280;66710;48.868;9.080;2023-06-22T12:05:11;97754.28;;;29.26;46.90
77574;BME280;66710;48.868;9.080;2023-06-22T12:07:36;97771.53;;;29.03;47.23
77574;BME280;66710;48.868;9.080;2023-06-22T12:10:02;97783.94;;;28.99;47.79
77574;BME280;66710;48.868;9.080;2023-06-22T12:12:28;97781.94;;;29.35;48.20
77574;BME280;66710;48.868;9.080;2023-06-22T12:14:53;97785.16;;;29.19;48.13
77574;BME280;66710;48.868;9.080;2023-06-22T12:17:18;97767.47;;;29.44;49.14
77574;BME280;66710;48.868;9.080;2023-06-22T12:19:44;97768.25;;;29.48;48.19
77574;BME280;66710;48.868;9.080;2023-06-22T12:22:09;97777.00;;;29.82;46.12
77574;BME280;66710;48.868;9.080;2023-06-22T12:24:34;97776.13;;;30.00;46.63
77574;BME280;66710;48.868;9.080;2023-06-22T12:26:59;97769.41;;;29.58;48.45
77574;BME280;66710;48.868;9.080;2023-06-22T12:29:25;97772.97;;;29.87;46.45
77574;BME280;66710;48.868;9.080;2023-06-22T12:31:50;97760.94;;;29.86;47.50
77574;BME280;66710;48.868;9.080;2023-06-22T12:34:15;97762.25;;;29.49;47.98
77574;BME280;66710;48.868;9.080;2023-06-22T12:36:41;97767.38;;;29.80;47.53
77574;BME280;66710;48.868;9.080;2023-06-22T12:39:07;97768.50;;;30.00;47.85
77574;BME280;66710;48.868;9.080;2023-06-22T12:41:32;97768.91;;;29.99;47.80
77574;BME280;66710;48.868;9.080;2023-06-22T12:43:57;97770.94;;;29.95;47.02
77574;BME280;66710;48.868;9.080;2023-06-22T12:46:23;97774.84;;;30.19;46.04
77574;BME280;66710;48.868;9.080;2023-06-22T12:48:48;97769.94;;;30.30;45.84
77574;BME280;66710;48.868;9.080;2023-06-22T12:51:20;97767.13;;;30.41;44.89
77574;BME280;66710;48.868;9.080;2023-06-22T12:53:46;97772.31;;;30.46;45.00
77574;BME280;66710;48.868;9.080;2023-06-22T12:56:11;97768.41;;;30.18;45.15
77574;BME280;66710;48.868;9.080;2023-06-22T12:58:36;97778.84;;;30.21;45.24